sensor_id;sensor_type;location;lat;lon;timestamp;pressure;altitude;pressure_sealevel;temperature;humidity
46756;BME280;32506;52.826;-1.192;2023-07-31T00:00:13;99856.94;;;17.69;63.80
46756;BME280;32506;52.826;-1.192;2023-07-31T00:02:39;99847.22;;;17.68;63.66
46756;BME280;32506;52.826;-1.192;2023-07-31T00:05:04;99851.53;;;17.69;63.65
46756;BME280;32506;52.826;-1.192;2023-07-31T00:07:31;99852.63;;;17.68;63.65
46756;BME280;32506;52.826;-1.192;2023-07-31T00:09:57;99849.91;;;17.68;63.84
46756;BME280;32506;52.826;-1.192;2023-07-31T00:12:23;99841.03;;;17.68;63.87
46756;BME280;32506;52.826;-1.192;2023-07-31T00:14:49;99841.03;;;17.68;64.42
46756;BME280;32506;52.826;-1.192;2023-07-31T00:17:14;99839.41;;;17.67;64.84
46756;BME280;32506;52.826;-1.192;2023-07-31T00:19:40;99829.41;;;17.67;64.51
46756;BME280;32506;52.826;-1.192;2023-07-31T00:22:05;99821.56;;;17.66;64.65
46756;BME280;32506;52.826;-1.192;2023-07-31T00:24:31;99824.25;;;17.66;64.25
46756;BME280;32506;52.826;-1.192;2023-07-31T00:26:57;99818.84;;;17.66;64.12
46756;BME280;32506;52.826;-1.192;2023-07-31T00:29:22;99818.84;;;17.66;64.61
46756;BME280;32506;52.826;-1.192;2023-07-31T00:31:48;99811.88;;;17.65;64.26
46756;BME280;32506;52.826;-1.192;2023-07-31T00:34:13;99814.56;;;17.65;64.13
46756;BME280;32506;52.826;-1.192;2023-07-31T00:36:38;99818.84;;;17.66;64.04
46756;BME280;32506;52.826;-1.192;2023-07-31T00:39:04;99812.66;;;17.65;63.95
46756;BME280;32506;52.826;-1.192;2023-07-31T00:41:30;99813.47;;;17.66;63.70
46756;BME280;32506;52.826;-1.192;2023-07-31T00:43:55;99804.84;;;17.64;63.82
46756;BME280;32506;52.826;-1.192;2023-07-31T00:46:21;99811.88;;;17.65;63.71
46756;BME280;32506;52.826;-1.192;2023-07-31T00:48:46;99806.47;;;17.65;63.65
46756;BME280;32506;52.826;-1.192;2023-07-31T00:51:12;99799.44;;;17.64;63.51
46756;BME280;32506;52.826;-1.192;2023-07-31T00:53:38;99794.81;;;17.64;63.38
46756;BME280;32506;52.826;-1.192;2023-07-31T00:56:04;99801.31;;;17.63;63.50
46756;BME280;32506;52.826;-1.192;2023-07-31T00:58:30;99800.50;;;17.63;63.36
46756;BME280;32506;52.826;-1.192;2023-07-31T01:00:55;99798.59;;;17.63;63.55
46756;BME280;32506;52.826;-1.192;2023-07-31T01:03:21;99793.47;;;17.61;63.67
46756;BME280;32506;52.826;-1.192;2023-07-31T01:06:15;99789.41;;;17.64;63.86
46756;BME280;32506;52.826;-1.192;2023-07-31T01:11:25;99771.88;;;17.61;64.31
46756;BME280;32506;52.826;-1.192;2023-07-31T01:13:53;99767.56;;;17.60;64.17
46756;BME280;32506;52.826;-1.192;2023-07-31T01:16:19;99766.75;;;17.60;64.37
46756;BME280;32506;52.826;-1.192;2023-07-31T01:18:44;99765.66;;;17.61;63.99
46756;BME280;32506;52.826;-1.192;2023-07-31T01:24:22;99756.47;;;17.62;64.55
46756;BME280;32506;52.826;-1.192;2023-07-31T01:27:12;99759.19;;;17.62;64.54
46756;BME280;32506;52.826;-1.192;2023-07-31T01:30:14;99751.09;;;17.62;64.33
46756;BME280;32506;52.826;-1.192;2023-07-31T01:32:42;99751.88;;;17.63;64.11
46756;BME280;32506;52.826;-1.192;2023-07-31T01:35:08;99745.41;;;17.58;64.26
46756;BME280;32506;52.826;-1.192;2023-07-31T01:37:34;99742.72;;;17.58;64.07
46756;BME280;32506;52.826;-1.192;2023-07-31T01:39:59;99741.63;;;17.59;64.52
46756;BME280;32506;52.826;-1.192;2023-07-31T01:42:25;99730.00;;;17.59;64.84
46756;BME280;32506;52.826;-1.192;2023-07-31T01:44:50;99727.31;;;17.59;64.49
46756;BME280;32506;52.826;-1.192;2023-07-31T01:47:16;99727.31;;;17.59;64.25
46756;BME280;32506;52.826;-1.192;2023-07-31T01:49:41;99713.81;;;17.59;64.33
46756;BME280;32506;52.826;-1.192;2023-07-31T01:52:07;99724.34;;;17.60;64.35
46756;BME280;32506;52.826;-1.192;2023-07-31T01:54:32;99735.94;;;17.61;64.40
46756;BME280;32506;52.826;-1.192;2023-07-31T01:56:58;99713.53;;;17.60;64.32
46756;BME280;32506;52.826;-1.192;2023-07-31T01:59:24;99717.03;;;17.61;64.36
46756;BME280;32506;52.826;-1.192;2023-07-31T02:01:49;99707.31;;;17.60;64.67
46756;BME280;32506;52.826;-1.192;2023-07-31T02:04:15;99708.13;;;17.60;64.51
46756;BME280;32506;52.826;-1.192;2023-07-31T02:06:40;99709.72;;;17.61;64.70
46756;BME280;32506;52.826;-1.192;2023-07-31T02:09:06;99712.72;;;17.60;64.67
46756;BME280;32506;52.826;-1.192;2023-07-31T02:11:31;99710.03;;;17.60;64.54
46756;BME280;32506;52.826;-1.192;2023-07-31T02:13:57;99704.31;;;17.61;64.88
46756;BME280;32506;52.826;-1.192;2023-07-31T02:16:22;99698.63;;;17.63;65.06
46756;BME280;32506;52.826;-1.192;2023-07-31T02:18:47;99694.34;;;17.62;64.83
46756;BME280;32506;52.826;-1.192;2023-07-31T02:21:13;99690.53;;;17.63;64.73
46756;BME280;32506;52.826;-1.192;2023-07-31T02:23:38;99689.75;;;17.63;65.07
46756;BME280;32506;52.826;-1.192;2023-07-31T02:26:04;99685.13;;;17.63;64.82
46756;BME280;32506;52.826;-1.192;2023-07-31T02:28:29;99692.16;;;17.64;65.22
46756;BME280;32506;52.826;-1.192;2023-07-31T02:30:55;99691.34;;;17.64;65.13
46756;BME280;32506;52.826;-1.192;2023-07-31T02:33:20;99686.75;;;17.64;65.04
46756;BME280;32506;52.826;-1.192;2023-07-31T02:35:46;99692.97;;;17.65;65.03
46756;BME280;32506;52.826;-1.192;2023-07-31T02:38:11;99682.97;;;17.65;65.05
46756;BME280;32506;52.826;-1.192;2023-07-31T02:40:37;99690.78;;;17.67;65.33
46756;BME280;32506;52.826;-1.192;2023-07-31T02:43:02;99685.38;;;17.67;65.35
46756;BME280;32506;52.826;-1.192;2023-07-31T02:45:28;99680.81;;;17.67;65.34
46756;BME280;32506;52.826;-1.192;2023-07-31T02:47:53;99678.09;;;17.67;65.48
46756;BME280;32506;52.826;-1.192;2023-07-31T02:50:19;99684.31;;;17.68;65.69
46756;BME280;32506;52.826;-1.192;2023-07-31T02:52:44;99683.22;;;17.69;65.55
46756;BME280;32506;52.826;-1.192;2023-07-31T02:55:09;99694.53;;;17.71;65.85
46756;BME280;32506;52.826;-1.192;2023-07-31T02:57:35;99685.63;;;17.70;65.89
46756;BME280;32506;52.826;-1.192;2023-07-31T03:00:00;99691.03;;;17.70;65.96
46756;BME280;32506;52.826;-1.192;2023-07-31T03:02:26;99684.56;;;17.71;65.99
46756;BME280;32506;52.826;-1.192;2023-07-31T03:04:51;99685.06;;;17.73;65.87
46756;BME280;32506;52.826;-1.192;2023-07-31T03:07:17;99689.38;;;17.74;65.79
46756;BME280;32506;52.826;-1.192;2023-07-31T03:09:42;99686.69;;;17.74;65.65
46756;BME280;32506;52.826;-1.192;2023-07-31T03:12:08;99675.59;;;17.76;66.35
46756;BME280;32506;52.826;-1.192;2023-07-31T03:14:33;99677.50;;;17.75;65.87
46756;BME280;32506;52.826;-1.192;2023-07-31T03:16:59;99672.59;;;17.77;66.12
46756;BME280;32506;52.826;-1.192;2023-07-31T03:19:24;99676.13;;;17.78;66.29
46756;BME280;32506;52.826;-1.192;2023-07-31T03:21:50;99665.31;;;17.78;65.77
46756;BME280;32506;52.826;-1.192;2023-07-31T03:24:15;99671.22;;;17.80;65.74
46756;BME280;32506;52.826;-1.192;2023-07-31T03:26:44;99677.44;;;17.81;65.80
46756;BME280;32506;52.826;-1.192;2023-07-31T03:29:09;99669.31;;;17.81;66.12
46756;BME280;32506;52.826;-1.192;2023-07-31T03:31:34;99675.25;;;17.83;66.16
46756;BME280;32506;52.826;-1.192;2023-07-31T03:34:00;99673.63;;;17.82;66.10
46756;BME280;32506;52.826;-1.192;2023-07-31T03:36:25;99672.56;;;17.83;65.87
46756;BME280;32506;52.826;-1.192;2023-07-31T03:38:51;99672.56;;;17.83;65.69
46756;BME280;32506;52.826;-1.192;2023-07-31T03:41:19;99668.78;;;17.84;65.72
46756;BME280;32506;52.826;-1.192;2023-07-31T03:43:49;99673.88;;;17.85;65.51
46756;BME280;32506;52.826;-1.192;2023-07-31T03:46:16;99662.28;;;17.85;65.19
46756;BME280;32506;52.826;-1.192;2023-07-31T03:48:41;99665.78;;;17.85;65.38
46756;BME280;32506;52.826;-1.192;2023-07-31T03:51:07;99667.41;;;17.86;65.08
46756;BME280;32506;52.826;-1.192;2023-07-31T03:53:32;99665.50;;;17.87;65.12
46756;BME280;32506;52.826;-1.192;2023-07-31T03:55:58;99658.47;;;17.86;64.95
46756;BME280;32506;52.826;-1.192;2023-07-31T03:58:23;99660.09;;;17.87;65.45
46756;BME280;32506;52.826;-1.192;2023-07-31T04:00:49;99666.28;;;17.87;65.41
46756;BME280;32506;52.826;-1.192;2023-07-31T04:03:14;99654.69;;;17.87;65.23
46756;BME280;32506;52.826;-1.192;2023-07-31T04:05:39;99652.78;;;17.87;65.42
46756;BME280;32506;52.826;-1.192;2023-07-31T04:08:05;99656.31;;;17.88;65.24
46756;BME280;32506;52.826;-1.192;2023-07-31T04:10:31;99634.69;;;17.88;65.40
46756;BME280;32506;52.826;-1.192;2023-07-31T04:12:58;99636.56;;;17.87;65.02
46756;BME280;32506;52.826;-1.192;2023-07-31T04:15:23;99638.19;;;17.88;65.33
46756;BME280;32506;52.826;-1.192;2023-07-31T04:17:49;99630.91;;;17.89;65.64
46756;BME280;32506;52.826;-1.192;2023-07-31T04:20:14;99630.06;;;17.88;65.89
46756;BME280;32506;52.826;-1.192;2023-07-31T04:22:40;99630.91;;;17.89;66.03
46756;BME280;32506;52.826;-1.192;2023-07-31T04:25:06;99616.56;;;17.88;66.32
46756;BME280;32506;52.826;-1.192;2023-07-31T04:27:31;99638.19;;;17.88;66.35
46756;BME280;32506;52.826;-1.192;2023-07-31T04:29:57;99639.81;;;17.89;66.22
46756;BME280;32506;52.826;-1.192;2023-07-31T04:32:22;99644.41;;;17.89;66.20
46756;BME280;32506;52.826;-1.192;2023-07-31T04:34:47;99650.59;;;17.89;65.95
46756;BME280;32506;52.826;-1.192;2023-07-31T04:37:13;99643.28;;;17.90;65.90
46756;BME280;32506;52.826;-1.192;2023-07-31T04:39:39;99648.19;;;17.88;65.97
46756;BME280;32506;52.826;-1.192;2023-07-31T04:42:04;99654.41;;;17.88;65.79
46756;BME280;32506;52.826;-1.192;2023-07-31T04:44:30;99650.06;;;17.87;65.59
46756;BME280;32506;52.826;-1.192;2023-07-31T04:46:55;99655.47;;;17.87;65.32
46756;BME280;32506;52.826;-1.192;2023-07-31T04:49:21;99660.09;;;17.87;65.33
46756;BME280;32506;52.826;-1.192;2023-07-31T04:51:47;99656.59;;;17.86;65.23
46756;BME280;32506;52.826;-1.192;2023-07-31T04:54:12;99661.19;;;17.86;65.15
46756;BME280;32506;52.826;-1.192;2023-07-31T04:56:40;99666.56;;;17.86;65.11
46756;BME280;32506;52.826;-1.192;2023-07-31T04:59:06;99653.06;;;17.86;64.78
46756;BME280;32506;52.826;-1.192;2023-07-31T05:01:31;99665.78;;;17.85;64.81
46756;BME280;32506;52.826;-1.192;2023-07-31T05:03:57;99660.38;;;17.85;64.92
46756;BME280;32506;52.826;-1.192;2023-07-31T05:06:22;99658.47;;;17.86;64.97
46756;BME280;32506;52.826;-1.192;2023-07-31T05:08:48;99655.78;;;17.86;65.08
46756;BME280;32506;52.826;-1.192;2023-07-31T05:11:13;99661.19;;;17.86;65.14
46756;BME280;32506;52.826;-1.192;2023-07-31T05:13:39;99653.06;;;17.86;65.30
46756;BME280;32506;52.826;-1.192;2023-07-31T05:16:04;99660.09;;;17.87;65.49
46756;BME280;32506;52.826;-1.192;2023-07-31T05:18:29;99662.78;;;17.87;65.54
46756;BME280;32506;52.826;-1.192;2023-07-31T05:20:55;99666.28;;;17.87;65.64
46756;BME280;32506;52.826;-1.192;2023-07-31T05:23:20;99663.31;;;17.89;65.83
46756;BME280;32506;52.826;-1.192;2023-07-31T05:25:46;99672.22;;;17.89;65.97
46756;BME280;32506;52.826;-1.192;2023-07-31T05:28:12;99671.16;;;17.90;66.09
46756;BME280;32506;52.826;-1.192;2023-07-31T05:30:38;99672.22;;;17.89;66.25
46756;BME280;32506;52.826;-1.192;2023-07-31T05:33:03;99670.31;;;17.90;65.80
46756;BME280;32506;52.826;-1.192;2023-07-31T05:35:28;99667.63;;;17.90;65.88
46756;BME280;32506;52.826;-1.192;2023-07-31T05:37:54;99661.97;;;17.91;65.82
46756;BME280;32506;52.826;-1.192;2023-07-31T05:40:19;99663.84;;;17.91;65.69
46756;BME280;32506;52.826;-1.192;2023-07-31T05:42:45;99667.38;;;17.91;65.40
46756;BME280;32506;52.826;-1.192;2023-07-31T05:45:10;99677.09;;;17.92;65.47
46756;BME280;32506;52.826;-1.192;2023-07-31T05:47:36;99677.63;;;17.94;65.28
46756;BME280;32506;52.826;-1.192;2023-07-31T05:50:01;99671.94;;;17.96;65.25
46756;BME280;32506;52.826;-1.192;2023-07-31T05:52:27;99676.75;;;17.99;65.30
46756;BME280;32506;52.826;-1.192;2023-07-31T05:54:54;99675.19;;;17.98;65.29
46756;BME280;32506;52.826;-1.192;2023-07-31T05:57:19;99672.69;;;18.02;65.05
46756;BME280;32506;52.826;-1.192;2023-07-31T05:59:45;99671.31;;;18.04;64.83
46756;BME280;32506;52.826;-1.192;2023-07-31T06:02:11;99667.53;;;18.05;64.66
46756;BME280;32506;52.826;-1.192;2023-07-31T06:04:36;99658.84;;;18.08;64.88
46756;BME280;32506;52.826;-1.192;2023-07-31T06:07:02;99663.69;;;18.11;64.87
46756;BME280;32506;52.826;-1.192;2023-07-31T06:09:28;99652.59;;;18.13;65.19
46756;BME280;32506;52.826;-1.192;2023-07-31T06:11:54;99658.22;;;18.17;64.90
46756;BME280;32506;52.826;-1.192;2023-07-31T06:14:19;99649.00;;;18.18;64.38
46756;BME280;32506;52.826;-1.192;2023-07-31T06:16:45;99641.16;;;18.21;63.91
46756;BME280;32506;52.826;-1.192;2023-07-31T06:19:10;99641.66;;;18.23;64.03
46756;BME280;32506;52.826;-1.192;2023-07-31T06:21:36;99644.59;;;18.27;63.65
46756;BME280;32506;52.826;-1.192;2023-07-31T06:24:07;99656.75;;;18.30;63.53
46756;BME280;32506;52.826;-1.192;2023-07-31T06:26:32;99642.94;;;18.31;63.80
46756;BME280;32506;52.826;-1.192;2023-07-31T06:28:58;99644.25;;;18.34;63.27
46756;BME280;32506;52.826;-1.192;2023-07-31T06:31:23;99645.28;;;18.38;63.07
46756;BME280;32506;52.826;-1.192;2023-07-31T06:33:50;99639.59;;;18.39;63.18
46756;BME280;32506;52.826;-1.192;2023-07-31T06:36:16;99629.81;;;18.43;63.51
46756;BME280;32506;52.826;-1.192;2023-07-31T06:38:41;99616.81;;;18.45;63.43
46756;BME280;32506;52.826;-1.192;2023-07-31T06:41:06;99614.59;;;18.48;63.43
46756;BME280;32506;52.826;-1.192;2023-07-31T06:43:32;99623.75;;;18.52;63.02
46756;BME280;32506;52.826;-1.192;2023-07-31T06:46:04;99615.06;;;18.55;64.30
46756;BME280;32506;52.826;-1.192;2023-07-31T06:48:29;99613.41;;;18.59;63.95
46756;BME280;32506;52.826;-1.192;2023-07-31T06:50:54;99616.41;;;18.57;63.38
46756;BME280;32506;52.826;-1.192;2023-07-31T06:53:20;99612.00;;;18.61;63.23
46756;BME280;32506;52.826;-1.192;2023-07-31T06:55:45;99616.03;;;18.64;64.02
46756;BME280;32506;52.826;-1.192;2023-07-31T06:58:11;99622.78;;;18.67;63.61
46756;BME280;32506;52.826;-1.192;2023-07-31T07:00:37;99627.59;;;18.70;63.16
46756;BME280;32506;52.826;-1.192;2023-07-31T07:03:02;99634.34;;;18.72;62.83
46756;BME280;32506;52.826;-1.192;2023-07-31T07:05:27;99644.28;;;18.77;63.69
46756;BME280;32506;52.826;-1.192;2023-07-31T07:07:53;99652.94;;;18.79;63.23
46756;BME280;32506;52.826;-1.192;2023-07-31T07:10:18;99650.72;;;18.81;63.02
46756;BME280;32506;52.826;-1.192;2023-07-31T07:12:44;99655.28;;;18.86;63.43
46756;BME280;32506;52.826;-1.192;2023-07-31T07:15:09;99650.38;;;18.88;63.17
46756;BME280;32506;52.826;-1.192;2023-07-31T07:17:35;99650.09;;;18.89;63.57
46756;BME280;32506;52.826;-1.192;2023-07-31T07:20:01;99646.00;;;18.92;63.11
46756;BME280;32506;52.826;-1.192;2023-07-31T07:22:26;99641.91;;;18.94;63.25
46756;BME280;32506;52.826;-1.192;2023-07-31T07:24:53;99640.22;;;18.99;63.83
46756;BME280;32506;52.826;-1.192;2023-07-31T07:27:18;99632.63;;;19.01;63.09
46756;BME280;32506;52.826;-1.192;2023-07-31T07:29:45;99619.34;;;19.04;63.07
46756;BME280;32506;52.826;-1.192;2023-07-31T07:32:11;99631.19;;;19.08;63.05
46756;BME280;32506;52.826;-1.192;2023-07-31T07:34:37;99622.47;;;19.11;62.87
46756;BME280;32506;52.826;-1.192;2023-07-31T07:37:02;99619.16;;;19.15;62.43
46756;BME280;32506;52.826;-1.192;2023-07-31T07:39:28;99619.38;;;19.18;62.31
46756;BME280;32506;52.826;-1.192;2023-07-31T07:41:53;99627.75;;;19.22;62.34
46756;BME280;32506;52.826;-1.192;2023-07-31T07:44:19;99624.44;;;19.25;62.63
46756;BME280;32506;52.826;-1.192;2023-07-31T07:46:44;99627.63;;;19.27;62.66
46756;BME280;32506;52.826;-1.192;2023-07-31T07:49:10;99617.31;;;19.29;62.61
46756;BME280;32506;52.826;-1.192;2023-07-31T07:51:38;99608.59;;;19.32;62.62
46756;BME280;32506;52.826;-1.192;2023-07-31T07:54:03;99611.00;;;19.34;62.03
46756;BME280;32506;52.826;-1.192;2023-07-31T07:56:29;99609.63;;;19.36;61.97
46756;BME280;32506;52.826;-1.192;2023-07-31T07:58:54;99609.34;;;19.38;61.94
46756;BME280;32506;52.826;-1.192;2023-07-31T08:01:20;99613.66;;;19.39;61.91
46756;BME280;32506;52.826;-1.192;2023-07-31T08:03:46;99609.06;;;19.39;62.15
46756;BME280;32506;52.826;-1.192;2023-07-31T08:06:12;99617.97;;;19.40;61.77
46756;BME280;32506;52.826;-1.192;2023-07-31T08:08:38;99623.91;;;19.42;61.69
46756;BME280;32506;52.826;-1.192;2023-07-31T08:11:04;99630.13;;;19.42;61.76
46756;BME280;32506;52.826;-1.192;2023-07-31T08:13:30;99632.84;;;19.42;61.69
46756;BME280;32506;52.826;-1.192;2023-07-31T08:15:55;99645.59;;;19.42;61.76
46756;BME280;32506;52.826;-1.192;2023-07-31T08:18:21;99643.97;;;19.41;61.61
46756;BME280;32506;52.826;-1.192;2023-07-31T08:20:47;99645.59;;;19.42;61.48
46756;BME280;32506;52.826;-1.192;2023-07-31T08:23:12;99628.50;;;19.41;61.53
46756;BME280;32506;52.826;-1.192;2023-07-31T08:25:38;99623.63;;;19.43;61.66
46756;BME280;32506;52.826;-1.192;2023-07-31T08:28:04;99632.03;;;19.42;61.67
46756;BME280;32506;52.826;-1.192;2023-07-31T08:30:30;99629.34;;;19.42;61.44
46756;BME280;32506;52.826;-1.192;2023-07-31T08:32:55;99630.13;;;19.42;61.37
46756;BME280;32506;52.826;-1.192;2023-07-31T08:35:21;99626.63;;;19.42;61.33
46756;BME280;32506;52.826;-1.192;2023-07-31T08:37:46;99621.22;;;19.42;61.37
46756;BME280;32506;52.826;-1.192;2023-07-31T08:40:12;99630.72;;;19.39;61.17
46756;BME280;32506;52.826;-1.192;2023-07-31T08:42:52;99636.63;;;19.41;61.33
46756;BME280;32506;52.826;-1.192;2023-07-31T08:45:19;99625.31;;;19.39;61.20
46756;BME280;32506;52.826;-1.192;2023-07-31T08:47:47;99616.34;;;19.39;61.09
46756;BME280;32506;52.826;-1.192;2023-07-31T08:50:14;99619.88;;;19.39;61.04
46756;BME280;32506;52.826;-1.192;2023-07-31T08:52:40;99625.59;;;19.38;60.91
46756;BME280;32506;52.826;-1.192;2023-07-31T08:55:06;99615.56;;;19.38;61.17
46756;BME280;32506;52.826;-1.192;2023-07-31T08:57:35;99624.78;;;19.37;60.89
46756;BME280;32506;52.826;-1.192;2023-07-31T09:00:02;99627.50;;;19.37;60.82
46756;BME280;32506;52.826;-1.192;2023-07-31T09:02:36;99626.41;;;19.38;60.75
46756;BME280;32506;52.826;-1.192;2023-07-31T09:05:06;99613.94;;;19.37;60.59
46756;BME280;32506;52.826;-1.192;2023-07-31T09:07:34;99592.28;;;19.37;60.94
46756;BME280;32506;52.826;-1.192;2023-07-31T09:10:00;99591.97;;;19.39;60.62
46756;BME280;32506;52.826;-1.192;2023-07-31T09:12:25;99594.69;;;19.39;60.73
46756;BME280;32506;52.826;-1.192;2023-07-31T09:14:51;99597.09;;;19.40;60.64
46756;BME280;32506;52.826;-1.192;2023-07-31T09:17:28;99600.31;;;19.42;60.45
46756;BME280;32506;52.826;-1.192;2023-07-31T09:19:54;99610.38;;;19.42;60.40
46756;BME280;32506;52.826;-1.192;2023-07-31T09:22:31;99615.97;;;19.45;60.46
46756;BME280;32506;52.826;-1.192;2023-07-31T09:25:13;99620.31;;;19.47;60.68
46756;BME280;32506;52.826;-1.192;2023-07-31T09:28:06;99611.31;;;19.51;60.31
46756;BME280;32506;52.826;-1.192;2023-07-31T09:30:47;99616.44;;;19.53;60.32
46756;BME280;32506;52.826;-1.192;2023-07-31T09:33:13;99611.81;;;19.53;60.18
46756;BME280;32506;52.826;-1.192;2023-07-31T09:35:39;99604.19;;;19.55;60.15
46756;BME280;32506;52.826;-1.192;2023-07-31T09:38:15;99610.63;;;19.59;60.15
46756;BME280;32506;52.826;-1.192;2023-07-31T09:40:48;99609.72;;;19.64;60.23
46756;BME280;32506;52.826;-1.192;2023-07-31T09:43:18;99612.66;;;19.68;59.94
46756;BME280;32506;52.826;-1.192;2023-07-31T09:45:45;99601.22;;;19.71;60.14
46756;BME280;32506;52.826;-1.192;2023-07-31T09:48:12;99603.53;;;19.77;59.88
46756;BME280;32506;52.826;-1.192;2023-07-31T09:50:42;99599.97;;;19.82;59.91
46756;BME280;32506;52.826;-1.192;2023-07-31T09:53:10;99597.44;;;19.86;59.87
46756;BME280;32506;52.826;-1.192;2023-07-31T09:55:37;99603.56;;;19.91;59.79
46756;BME280;32506;52.826;-1.192;2023-07-31T09:58:08;99594.56;;;19.96;59.85
46756;BME280;32506;52.826;-1.192;2023-07-31T10:00:35;99588.53;;;19.99;59.83
46756;BME280;32506;52.826;-1.192;2023-07-31T10:03:02;99604.72;;;20.04;59.55
46756;BME280;32506;52.826;-1.192;2023-07-31T10:05:35;99607.31;;;20.09;59.45
46756;BME280;32506;52.826;-1.192;2023-07-31T10:08:02;99604.63;;;20.09;59.37
46756;BME280;32506;52.826;-1.192;2023-07-31T10:10:28;99600.50;;;20.12;59.13
46756;BME280;32506;52.826;-1.192;2023-07-31T10:12:56;99598.59;;;20.12;59.13
46756;BME280;32506;52.826;-1.192;2023-07-31T10:15:21;99605.94;;;20.12;58.80
46756;BME280;32506;52.826;-1.192;2023-07-31T10:17:48;99607.03;;;20.11;58.62
46756;BME280;32506;52.826;-1.192;2023-07-31T10:20:15;99615.94;;;20.11;58.44
46756;BME280;32506;52.826;-1.192;2023-07-31T10:22:43;99629.81;;;20.10;58.46
46756;BME280;32506;52.826;-1.192;2023-07-31T10:25:11;99611.13;;;20.08;58.54
46756;BME280;32506;52.826;-1.192;2023-07-31T10:27:38;99615.25;;;20.06;58.45
46756;BME280;32506;52.826;-1.192;2023-07-31T10:30:06;99600.06;;;20.05;58.25
46756;BME280;32506;52.826;-1.192;2023-07-31T10:32:33;99590.34;;;20.04;58.28
46756;BME280;32506;52.826;-1.192;2023-07-31T10:35:01;99586.34;;;20.01;58.38
46756;BME280;32506;52.826;-1.192;2023-07-31T10:37:37;99593.38;;;20.02;58.29
46756;BME280;32506;52.826;-1.192;2023-07-31T10:42:38;99599.69;;;19.98;58.66
46756;BME280;32506;52.826;-1.192;2023-07-31T10:45:10;99595.66;;;19.95;58.39
46756;BME280;32506;52.826;-1.192;2023-07-31T10:47:42;99600.59;;;19.93;58.74
46756;BME280;32506;52.826;-1.192;2023-07-31T10:50:13;99584.91;;;19.90;58.63
46756;BME280;32506;52.826;-1.192;2023-07-31T10:52:44;99597.16;;;19.87;58.64
46756;BME280;32506;52.826;-1.192;2023-07-31T10:55:33;99605.59;;;19.86;58.56
46756;BME280;32506;52.826;-1.192;2023-07-31T10:58:07;99611.09;;;19.81;58.55
46756;BME280;32506;52.826;-1.192;2023-07-31T11:00:33;99615.16;;;19.78;58.73
46756;BME280;32506;52.826;-1.192;2023-07-31T11:03:06;99626.63;;;19.75;58.72
46756;BME280;32506;52.826;-1.192;2023-07-31T11:05:51;99624.22;;;19.73;58.81
46756;BME280;32506;52.826;-1.192;2023-07-31T11:08:20;99621.56;;;19.68;58.88
46756;BME280;32506;52.826;-1.192;2023-07-31T11:10:49;99619.16;;;19.67;58.78
46756;BME280;32506;52.826;-1.192;2023-07-31T11:13:14;99618.16;;;19.62;58.92
46756;BME280;32506;52.826;-1.192;2023-07-31T11:15:40;99613.03;;;19.61;58.94
46756;BME280;32506;52.826;-1.192;2023-07-31T11:18:06;99611.72;;;19.58;58.99
46756;BME280;32506;52.826;-1.192;2023-07-31T11:20:33;99616.63;;;19.56;59.12
46756;BME280;32506;52.826;-1.192;2023-07-31T11:23:03;99622.63;;;19.53;59.05
46756;BME280;32506;52.826;-1.192;2023-07-31T11:25:31;99623.25;;;19.50;59.00
46756;BME280;32506;52.826;-1.192;2023-07-31T11:28:01;99621.63;;;19.49;59.09
46756;BME280;32506;52.826;-1.192;2023-07-31T11:30:27;99626.53;;;19.47;59.24
46756;BME280;32506;52.826;-1.192;2023-07-31T11:32:55;99631.44;;;19.45;59.19
46756;BME280;32506;52.826;-1.192;2023-07-31T11:35:20;99641.75;;;19.43;59.15
46756;BME280;32506;52.826;-1.192;2023-07-31T11:37:46;99630.72;;;19.39;59.33
46756;BME280;32506;52.826;-1.192;2023-07-31T11:40:11;99631.28;;;19.36;59.29
46756;BME280;32506;52.826;-1.192;2023-07-31T11:42:37;99641.63;;;19.34;59.26
46756;BME280;32506;52.826;-1.192;2023-07-31T11:45:04;99636.81;;;19.31;59.46
46756;BME280;32506;52.826;-1.192;2023-07-31T11:47:32;99634.69;;;19.28;59.40
46756;BME280;32506;52.826;-1.192;2023-07-31T11:49:59;99624.44;;;19.25;59.30
46756;BME280;32506;52.826;-1.192;2023-07-31T11:52:25;99629.63;;;19.21;59.33
46756;BME280;32506;52.826;-1.192;2023-07-31T11:54:51;99626.72;;;19.18;59.50
46756;BME280;32506;52.826;-1.192;2023-07-31T11:57:18;99628.09;;;19.15;59.29
46756;BME280;32506;52.826;-1.192;2023-07-31T11:59:44;99627.59;;;19.13;59.62
46756;BME280;32506;52.826;-1.192;2023-07-31T12:02:10;99614.63;;;19.10;59.65
46756;BME280;32506;52.826;-1.192;2023-07-31T12:04:35;99606.28;;;19.06;59.65
46756;BME280;32506;52.826;-1.192;2023-07-31T12:07:01;99594.13;;;19.04;59.56
46756;BME280;32506;52.826;-1.192;2023-07-31T12:09:27;99590.94;;;19.02;59.55
46756;BME280;32506;52.826;-1.192;2023-07-31T12:11:52;99584.19;;;18.99;59.55
46756;BME280;32506;52.826;-1.192;2023-07-31T12:14:24;99576.06;;;18.99;59.51
46756;BME280;32506;52.826;-1.192;2023-07-31T12:17:04;99561.22;;;18.97;59.75
46756;BME280;32506;52.826;-1.192;2023-07-31T12:19:30;99553.41;;;18.95;59.73
46756;BME280;32506;52.826;-1.192;2023-07-31T12:21:57;99537.44;;;18.93;59.84
46756;BME280;32506;52.826;-1.192;2023-07-31T12:24:23;99535.00;;;18.92;59.83
46756;BME280;32506;52.826;-1.192;2023-07-31T12:26:49;99543.97;;;18.92;59.94
46756;BME280;32506;52.826;-1.192;2023-07-31T12:29:14;99551.56;;;18.90;59.75
46756;BME280;32506;52.826;-1.192;2023-07-31T12:31:42;99539.13;;;18.89;59.86
46756;BME280;32506;52.826;-1.192;2023-07-31T12:34:16;99511.25;;;18.89;60.01
46756;BME280;32506;52.826;-1.192;2023-07-31T12:36:46;99516.66;;;18.89;59.96
46756;BME280;32506;52.826;-1.192;2023-07-31T12:39:14;99523.69;;;18.90;59.83
46756;BME280;32506;52.826;-1.192;2023-07-31T12:41:39;99513.34;;;18.92;60.15
46756;BME280;32506;52.826;-1.192;2023-07-31T12:44:05;99519.91;;;18.91;60.13
46756;BME280;32506;52.826;-1.192;2023-07-31T12:46:30;99540.44;;;18.92;60.13
46756;BME280;32506;52.826;-1.192;2023-07-31T12:48:56;99556.66;;;18.92;60.16
46756;BME280;32506;52.826;-1.192;2023-07-31T12:51:21;99591.06;;;18.91;60.18
46756;BME280;32506;52.826;-1.192;2023-07-31T12:53:46;99619.22;;;18.90;60.28
46756;BME280;32506;52.826;-1.192;2023-07-31T12:56:12;99608.69;;;18.89;60.42